Relevés horaires Beauvechain (Belgique)


Relevés horaires à Beauvechain - Vendredi 23 Sept. 2022
Heure UTC1 Température [°C] Vent [km/h] Hum. [%] Pres.4 [hPa] Visi. [Km] Nébu. [octa] Préc.5 [mm] Cond.
2m. Res. Ros. Dir.2 Vit. Moy. Raf.3
23:00 12.9 12.9 10.0 NNO 1.9 -- 1.9 83 1014.2(-0.5/3h) 16 -- -- --
22:00 13.1 13.1 10.4 NNO 1.9 -- 1.9 84 1014.5(-0.5/3h) 17 -- -- NA
21:00 13.1 13.1 10.7 NNO 1.9 -- 5.6 85 1014.5(-0.4/3h) 17 -- -- NA
20:00 13.7 13.7 10.3 NNO 1.9 -- 3.7 80 1014.7(0.0/3h) 19 -- -- NA
19:00 14.1 14.1 11.1 NNO 1.9 -- 5.6 82 1014.8(0.0/3h) 17 -- -- Il y a de la pluie faible et continue à la station au moment de l'observation
18:00 14.8 14.8 10.4 OSO 3.7 -- 9.3 75 1014.8(-0.3/3h) 20 -- 0.1/12h
Il y a une bruine faible et continue à la station au moment de l'observation
17:00 16.0 16.0 10.4 NNO 1.9 -- 3.7 69 1014.7(-0.7/3h) 20 -- -- --
16:00 16.7 16.7 10.5 NNO 1.9 -- 5.6 67 1014.8(-1.1/3h) 20 -- -- --
15:00 17.3 17.3 10.5 OSO 3.7 -- 9.3 64 1015.1(-1.1/3h) 20 7/8 -- --
14:00 17.5 17.5 10.3 SO 3.7 -- 9.3 63 1015.3(-1.1/3h) 20 7/8 -- --
13:00 17.1 17.1 9.3 SO 3.7 -- 9.3 60 1016(-0.5/3h) 20 7/8 -- --
12:00 16.6 16.6 8.4 SO 7.4 -- 11.1 58 1016.2(-0.6/3h) 20 7/8 -- --
11:00 16.3 16.3 8.1 SO 5.6 -- 7.4 58 1016.6(-0.1/3h) 20 7/8 -- --
10:00 15.2 15.2 7.4 SSO 5.6 -- 11.1 60 1016.7(-0.1/3h) 20 7/8 -- --
09:00 13.7 13.7 6.9 SSO 5.6 -- 7.4 63 1017.1(0.1/3h) 20 7/8 -- --
08:00 12.6 12.6 5.7 SSO 3.7 -- 5.6 63 1017(0.0/3h) 20 7/8 -- --
07:00 11.0 11.0 5.2 SO 3.7 -- 5.6 67 1017(-0.1/3h) 20 7/8 -- --
06:00 10.3 10.3 4.9 SSO 3.7 -- 5.6 69 1017.2(-0.2/3h) 20 5/8 -- --
05:00 10.3 10.3 5.1 SSO 3.7 -- 5.6 70 1017(-0.8/3h) 20 5/8 -- --
04:00 10.8 10.8 5.1 SSO 3.7 -- 5.6 68 1017.2(-0.8/3h) 20 -- -- --
03:00 11.0 11.0 5.5 NNO 1.9 -- 3.7 69 1017.2(-1.0/3h) 20 -- -- --
02:00 11.1 11.1 5.9 NNO 1.9 -- 3.7 70 1017.7(-0.9/3h) 20 -- -- --
01:00 12.3 12.3 5.2 NNO 1.9 -- 1.9 62 1017.8(-1.1/3h) 20 -- -- --
00:00 12.4 12.4 5.2 NNO 1.9 -- 5.6 61 1018.2(-1.1/3h) 20 -- -- --

1 Coordinated Universal Time. Actuellement il est 19:00 locale et 18:00 UTC.

2 Le vent souffle depuis la direction indiquée vers la direction oposée.

3 Les rafales max. sont disponible 40 min après l'heure du relevé.

4 Pour les stations d'altitude (plus de 600m) le géopotentiel du niveau le plus proche de la pression obligatoire est indiqué.

5 Les stations disposant d'un diffuseur peuvent indiquer "trace". Cela signifie que des précipitations ont touchés le sol mais que la quantité est inférieure à 0.1 mm.

Récapitulatif de la journée
Température [°C] Vent [km/h] Ensoleillement4 [h] Precipitations totale5 [mm] Pression [Hpa]
Min1 Max.2 Moy.3 Max. Min Max.
10.0 17.7 0 11.1 0 h 0 min 0 1014.2 1018.2

1 Température minimale relevée entre 18:00 UTC la veille et 18:00 UTC le jour donné.

2 Température maximale relevée entre 06:00 UTC le jour donné et 06:00 UTC le lendemain.

3 Vent moyen de la journée basé sur les relevés horaires.

4 Ensoleillement en heures relevé entre 06:00 UTC la veille et 06:00 UTC le jour donné.

5 Précipitations totales tombées entre 06:00 UTC la jour donné et 06:00 UTC le lendemain.

Graphiques horaires